createdAt,value
2018-08-31T00:00:52.049Z,3.50
2018-08-31T00:03:31.677Z,4.10
2018-08-31T00:06:10.712Z,4.10
2018-08-31T00:08:47.767Z,3.90
2018-08-31T00:11:40.514Z,4.30
2018-08-31T00:14:08.243Z,3.67
2018-08-31T00:16:35.991Z,4.57
2018-08-31T00:19:03.715Z,4.40
2018-08-31T00:21:31.433Z,3.90
2018-08-31T00:24:10.527Z,4.40
2018-08-31T00:26:49.699Z,3.90
2018-08-31T00:29:37.571Z,4.40
2018-08-31T00:34:18.861Z,3.17
2018-08-31T00:37:59.016Z,2.70
2018-08-31T00:40:49.905Z,3.10
2018-08-31T00:44:32.467Z,3.30
2018-08-31T00:47:00.288Z,3.07
2018-08-31T00:49:28.023Z,4.30
2018-08-31T00:51:55.747Z,4.03
2018-08-31T00:54:24.426Z,3.37
2018-08-31T00:56:52.160Z,3.80
2018-08-31T00:59:19.880Z,3.83
2018-08-31T01:01:47.599Z,3.93
2018-08-31T01:04:15.312Z,3.77
2018-08-31T01:06:43.016Z,3.57
2018-08-31T01:09:10.750Z,3.00
2018-08-31T01:11:38.468Z,3.53
2018-08-31T01:14:06.260Z,3.03
2018-08-31T01:16:34.012Z,3.87
2018-08-31T01:19:01.736Z,3.33
2018-08-31T01:21:29.441Z,4.63
2018-08-31T01:23:57.184Z,6.23
2018-08-31T01:26:24.869Z,4.17
2018-08-31T01:28:52.584Z,4.10
2018-08-31T01:31:20.272Z,4.70
2018-08-31T01:33:47.984Z,3.47
2018-08-31T01:36:15.671Z,3.23
2018-08-31T01:38:43.646Z,3.40
2018-08-31T01:41:11.351Z,3.33
2018-08-31T01:43:39.064Z,3.30
2018-08-31T01:46:06.784Z,3.07
2018-08-31T01:48:34.508Z,3.67
2018-08-31T01:51:07.811Z,3.03
2018-08-31T01:53:35.530Z,4.80
2018-08-31T01:56:03.247Z,3.10
2018-08-31T01:58:30.961Z,3.03
2018-08-31T02:00:58.688Z,2.70
2018-08-31T02:03:26.394Z,3.10
2018-08-31T02:05:54.176Z,2.50
2018-08-31T02:08:21.919Z,2.70
2018-08-31T02:10:49.640Z,2.80
2018-08-31T02:13:17.431Z,3.13
2018-08-31T02:15:45.144Z,2.93
2018-08-31T02:18:12.855Z,3.63
2018-08-31T02:20:40.573Z,3.40
2018-08-31T02:23:08.300Z,3.00
2018-08-31T02:25:36.012Z,3.20
2018-08-31T02:28:03.772Z,3.30
2018-08-31T02:30:31.484Z,2.67
2018-08-31T02:32:59.193Z,3.40
2018-08-31T02:35:26.930Z,3.20
2018-08-31T02:37:54.674Z,2.90
2018-08-31T02:40:22.420Z,2.80
2018-08-31T02:42:50.129Z,3.50
2018-08-31T02:45:17.871Z,4.00
2018-08-31T02:47:46.281Z,3.57
2018-08-31T02:50:14.011Z,3.23
2018-08-31T02:52:41.720Z,3.20
2018-08-31T02:55:09.488Z,3.03
2018-08-31T02:57:37.196Z,3.00
2018-08-31T03:00:04.991Z,2.73
2018-08-31T03:02:32.888Z,2.97
2018-08-31T03:05:00.568Z,3.50
2018-08-31T03:07:28.267Z,2.87
2018-08-31T03:09:55.972Z,2.90
2018-08-31T03:12:23.691Z,3.23
2018-08-31T03:14:51.381Z,2.97
2018-08-31T03:17:19.099Z,4.50
2018-08-31T03:19:46.792Z,4.63
2018-08-31T03:22:14.496Z,3.50
2018-08-31T03:24:42.212Z,3.77
2018-08-31T03:27:09.964Z,3.00
2018-08-31T03:29:37.669Z,2.80
2018-08-31T03:32:05.401Z,2.83
2018-08-31T03:34:33.172Z,3.40
2018-08-31T03:37:01.002Z,2.83
2018-08-31T03:39:28.644Z,3.40
2018-08-31T03:41:56.357Z,2.90
2018-08-31T03:44:24.157Z,2.93
2018-08-31T03:46:51.864Z,3.80
2018-08-31T03:49:19.557Z,3.00
2018-08-31T03:51:47.283Z,2.87
2018-08-31T03:54:14.991Z,3.77
2018-08-31T03:56:42.729Z,3.17
2018-08-31T03:59:10.468Z,3.20
2018-08-31T04:01:38.212Z,3.00
2018-08-31T04:04:05.945Z,2.70
2018-08-31T04:06:33.672Z,2.70
2018-08-31T04:09:01.407Z,3.47
2018-08-31T04:11:29.125Z,2.40
2018-08-31T04:13:56.841Z,2.30
2018-08-31T04:16:24.549Z,3.20
2018-08-31T04:18:52.261Z,3.13
2018-08-31T04:21:19.953Z,2.93
2018-08-31T04:23:47.689Z,2.90
2018-08-31T04:26:15.397Z,2.17
2018-08-31T04:28:43.111Z,2.70
2018-08-31T04:31:10.808Z,3.33
2018-08-31T04:33:38.526Z,3.20
2018-08-31T04:36:06.256Z,3.50
2018-08-31T04:38:33.972Z,3.07
2018-08-31T04:41:01.787Z,3.53
2018-08-31T04:43:29.506Z,3.20
2018-08-31T04:45:57.252Z,3.10
2018-08-31T04:48:24.959Z,4.03
2018-08-31T04:50:52.682Z,2.90
2018-08-31T04:53:20.388Z,3.50
2018-08-31T04:55:48.092Z,3.30
2018-08-31T04:58:15.828Z,3.03
2018-08-31T05:00:43.576Z,2.70
2018-08-31T05:03:11.364Z,3.30
2018-08-31T05:05:39.076Z,3.27
2018-08-31T05:08:06.790Z,3.50
2018-08-31T05:10:34.620Z,3.60
2018-08-31T05:13:02.419Z,3.03
2018-08-31T05:15:30.120Z,4.30
2018-08-31T05:17:57.828Z,3.73
2018-08-31T05:20:25.554Z,3.30
2018-08-31T05:22:53.278Z,3.20
2018-08-31T05:25:20.993Z,3.57
2018-08-31T05:27:48.728Z,4.20
2018-08-31T05:30:16.424Z,3.40
2018-08-31T05:32:44.132Z,3.80
2018-08-31T05:35:11.934Z,3.03
2018-08-31T05:37:39.876Z,3.23
2018-08-31T05:40:07.659Z,3.83
2018-08-31T05:42:35.496Z,2.70
2018-08-31T05:45:03.330Z,2.53
2018-08-31T05:47:31.029Z,2.50
2018-08-31T05:49:58.735Z,2.30
2018-08-31T05:52:26.445Z,2.90
2018-08-31T05:54:54.160Z,3.20
2018-08-31T05:57:21.931Z,4.10
2018-08-31T05:59:49.656Z,3.33
2018-08-31T06:02:17.528Z,1.90
2018-08-31T06:04:45.107Z,3.50
2018-08-31T06:07:12.860Z,2.20
2018-08-31T06:09:40.612Z,4.60
2018-08-31T06:12:08.365Z,3.23
2018-08-31T06:14:36.102Z,2.27
2018-08-31T06:17:03.936Z,2.77
2018-08-31T06:19:31.691Z,2.67
2018-08-31T06:21:59.401Z,2.80
2018-08-31T06:24:27.132Z,2.60
2018-08-31T06:26:54.890Z,2.63
2018-08-31T06:29:22.591Z,2.03
2018-08-31T06:31:50.310Z,2.20
2018-08-31T06:34:18.040Z,2.50
2018-08-31T06:36:45.830Z,2.70
2018-08-31T06:39:13.573Z,2.53
2018-08-31T06:41:41.294Z,3.00
2018-08-31T06:44:09.036Z,3.70
2018-08-31T06:46:36.757Z,3.37
2018-08-31T06:49:04.525Z,2.90
2018-08-31T06:51:32.312Z,3.10
2018-08-31T06:54:00.026Z,3.43
2018-08-31T06:56:27.719Z,4.40
2018-08-31T06:58:55.514Z,4.07
2018-08-31T07:01:23.297Z,3.40
2018-08-31T07:03:51.091Z,3.37
2018-08-31T07:06:18.774Z,3.90
2018-08-31T07:08:46.492Z,3.30
2018-08-31T07:11:14.216Z,3.50
2018-08-31T07:13:41.931Z,3.73
2018-08-31T07:16:09.644Z,4.73
2018-08-31T07:18:37.365Z,3.37
2018-08-31T07:21:05.165Z,2.90
2018-08-31T07:23:32.922Z,2.60
2018-08-31T07:26:00.638Z,3.13
2018-08-31T07:28:28.360Z,3.13
2018-08-31T07:30:56.090Z,3.60
2018-08-31T07:33:23.923Z,3.47
2018-08-31T07:35:51.780Z,3.87
2018-08-31T07:38:19.665Z,3.30
2018-08-31T07:40:47.381Z,3.67
2018-08-31T07:43:15.097Z,3.60
2018-08-31T07:45:42.807Z,3.17
2018-08-31T07:48:10.711Z,3.20
2018-08-31T07:50:38.448Z,2.10
2018-08-31T07:53:06.161Z,3.10
2018-08-31T07:55:33.895Z,3.13
2018-08-31T07:58:02.457Z,2.73
2018-08-31T08:00:30.196Z,2.73
2018-08-31T08:02:57.891Z,3.13
2018-08-31T08:05:25.715Z,2.80
2018-08-31T08:07:53.376Z,3.30
2018-08-31T08:10:21.099Z,2.80
2018-08-31T08:12:48.793Z,3.40
2018-08-31T08:15:16.528Z,3.47
2018-08-31T08:17:44.222Z,2.83
2018-08-31T08:20:11.932Z,4.33
2018-08-31T08:22:39.723Z,2.60
2018-08-31T08:25:07.477Z,2.53
2018-08-31T08:27:35.240Z,2.93
2018-08-31T08:30:03.011Z,3.77
2018-08-31T08:32:30.714Z,2.80
2018-08-31T08:34:58.424Z,2.70
2018-08-31T08:37:26.172Z,2.97
2018-08-31T08:39:53.908Z,2.17
2018-08-31T08:42:21.749Z,2.53
2018-08-31T08:44:49.431Z,2.30
2018-08-31T08:47:17.128Z,3.63
2018-08-31T08:49:44.853Z,3.17
2018-08-31T08:52:12.563Z,3.30
2018-08-31T08:54:40.365Z,2.47
2018-08-31T08:57:07.987Z,2.60
2018-08-31T08:59:35.703Z,2.50
2018-08-31T09:02:03.469Z,1.97
2018-08-31T09:04:31.229Z,2.80
2018-08-31T09:06:59.026Z,3.03
2018-08-31T09:09:26.821Z,2.97
2018-08-31T09:11:54.595Z,3.03
2018-08-31T09:14:22.547Z,1.67
2018-08-31T09:16:50.351Z,2.30
2018-08-31T09:19:18.148Z,2.00
2018-08-31T09:21:45.960Z,1.80
2018-08-31T09:24:13.726Z,2.40
2018-08-31T09:26:41.545Z,1.30
2018-08-31T09:29:09.269Z,1.67
2018-08-31T09:31:37.015Z,2.00
2018-08-31T09:34:04.781Z,1.63
2018-08-31T09:36:32.582Z,1.97
2018-08-31T09:39:00.337Z,2.00
2018-08-31T09:41:28.092Z,1.33
2018-08-31T09:43:55.999Z,2.10
2018-08-31T09:46:23.717Z,1.80
2018-08-31T09:48:51.456Z,2.00
2018-08-31T09:51:19.225Z,1.80
2018-08-31T09:53:46.976Z,1.80
2018-08-31T09:56:14.676Z,1.50
2018-08-31T09:58:42.405Z,1.30
2018-08-31T10:01:15.704Z,1.40
2018-08-31T10:03:43.436Z,1.80
2018-08-31T10:06:11.140Z,1.30
2018-08-31T10:08:38.943Z,1.40
2018-08-31T10:11:06.697Z,1.63
2018-08-31T10:13:34.455Z,1.30
2018-08-31T10:16:02.288Z,1.37
2018-08-31T10:18:30.057Z,0.87
2018-08-31T10:20:57.760Z,2.27
2018-08-31T10:23:25.467Z,1.30
2018-08-31T10:25:53.180Z,1.10
2018-08-31T10:28:20.892Z,1.30
2018-08-31T10:30:48.601Z,1.87
2018-08-31T10:33:16.276Z,1.60
2018-08-31T10:35:44.030Z,1.30
2018-08-31T10:38:11.737Z,1.07
2018-08-31T10:40:39.455Z,1.73
2018-08-31T10:43:07.175Z,1.00
2018-08-31T10:45:34.931Z,1.10
2018-08-31T10:48:02.655Z,1.30
2018-08-31T10:50:30.376Z,0.97
2018-08-31T10:52:58.116Z,1.80
2018-08-31T10:55:25.836Z,0.90
2018-08-31T10:57:53.666Z,1.03
2018-08-31T11:00:21.376Z,1.57
2018-08-31T11:02:49.472Z,1.73
2018-08-31T11:05:17.217Z,2.13
2018-08-31T11:07:44.963Z,0.90
2018-08-31T11:10:12.656Z,1.90
2018-08-31T11:12:40.519Z,1.20
2018-08-31T11:15:08.203Z,1.03
2018-08-31T11:17:35.922Z,1.47
2018-08-31T11:20:03.747Z,0.90
2018-08-31T11:22:31.469Z,1.20
2018-08-31T11:24:59.184Z,1.20
2018-08-31T11:27:26.887Z,1.30
2018-08-31T11:29:54.641Z,0.90
2018-08-31T11:32:22.551Z,1.33
2018-08-31T11:34:50.307Z,1.80
2018-08-31T11:37:18.044Z,1.20
2018-08-31T11:39:45.804Z,1.83
2018-08-31T11:42:13.507Z,1.10
2018-08-31T11:44:41.238Z,0.90
2018-08-31T11:47:08.964Z,1.10
2018-08-31T11:49:36.677Z,1.20
2018-08-31T11:52:04.441Z,1.10
2018-08-31T11:54:32.208Z,1.70
2018-08-31T11:56:59.921Z,0.90
2018-08-31T11:59:28.227Z,0.87
2018-08-31T12:01:55.955Z,1.07
2018-08-31T12:04:23.671Z,1.40
2018-08-31T12:06:51.457Z,1.10
2018-08-31T12:09:19.176Z,1.00
2018-08-31T12:11:46.936Z,1.60
2018-08-31T12:14:14.790Z,1.47
2018-08-31T12:16:42.536Z,1.30
2018-08-31T12:19:10.290Z,0.87
2018-08-31T12:21:38.106Z,1.17
2018-08-31T12:24:05.909Z,1.43
2018-08-31T12:26:33.693Z,1.17
2018-08-31T12:29:01.431Z,1.17
2018-08-31T12:31:29.245Z,1.10
2018-08-31T12:33:57.008Z,1.57
2018-08-31T12:36:24.750Z,0.90
2018-08-31T12:38:52.481Z,2.10
2018-08-31T12:41:20.219Z,1.00
2018-08-31T12:43:48.025Z,1.03
2018-08-31T12:46:15.677Z,1.13
2018-08-31T12:48:43.405Z,1.13
2018-08-31T12:51:11.114Z,1.83
2018-08-31T12:53:38.853Z,0.90
2018-08-31T12:56:06.609Z,1.37
2018-08-31T12:58:34.338Z,1.17
2018-08-31T13:01:02.211Z,1.67
2018-08-31T13:03:30.023Z,1.80
2018-08-31T13:05:57.766Z,1.07
2018-08-31T13:08:25.473Z,1.43
2018-08-31T13:10:53.219Z,1.63
2018-08-31T13:13:20.922Z,1.20
2018-08-31T13:15:48.644Z,1.00
2018-08-31T13:18:16.364Z,1.37
2018-08-31T13:20:44.164Z,1.40
2018-08-31T13:23:11.957Z,1.57
2018-08-31T13:25:39.776Z,1.23
2018-08-31T13:28:07.539Z,1.37
2018-08-31T13:30:36.070Z,1.20
2018-08-31T13:33:03.832Z,1.80
2018-08-31T13:35:31.561Z,1.30
2018-08-31T13:37:59.311Z,1.53
2018-08-31T13:40:27.099Z,1.00
2018-08-31T13:42:54.808Z,1.27
2018-08-31T13:45:22.513Z,1.17
2018-08-31T13:47:50.253Z,1.10
2018-08-31T13:50:17.960Z,1.20
2018-08-31T13:52:45.768Z,1.37
2018-08-31T13:55:13.441Z,1.23
2018-08-31T13:57:41.148Z,1.23
2018-08-31T14:00:08.919Z,1.30
2018-08-31T14:02:36.701Z,1.00
2018-08-31T14:05:04.477Z,1.20
2018-08-31T14:07:32.216Z,1.60
2018-08-31T14:09:59.943Z,1.47
2018-08-31T14:12:27.681Z,1.50
2018-08-31T14:14:55.389Z,1.90
2018-08-31T14:17:23.124Z,1.80
2018-08-31T14:19:50.830Z,1.50
2018-08-31T14:22:18.555Z,2.00
2018-08-31T14:24:46.261Z,1.23
2018-08-31T14:27:13.976Z,2.60
2018-08-31T14:29:41.766Z,1.57
2018-08-31T14:32:09.481Z,1.17
2018-08-31T14:34:37.209Z,1.60
2018-08-31T14:37:05.020Z,1.53
2018-08-31T14:39:32.763Z,1.33
2018-08-31T14:42:00.459Z,1.77
2018-08-31T14:44:28.169Z,1.30
2018-08-31T14:46:55.904Z,1.50
2018-08-31T14:49:23.690Z,1.27
2018-08-31T14:51:51.398Z,1.87
2018-08-31T14:54:19.174Z,1.73
2018-08-31T14:56:46.892Z,1.53
2018-08-31T14:59:14.642Z,1.33
2018-08-31T15:01:42.483Z,1.30
2018-08-31T15:04:10.240Z,1.40
2018-08-31T15:06:38.028Z,2.03
2018-08-31T15:09:07.610Z,1.67
2018-08-31T15:11:35.356Z,1.30
2018-08-31T15:14:03.205Z,1.60
2018-08-31T15:16:31.004Z,2.07
2018-08-31T15:18:58.757Z,1.70
2018-08-31T15:21:26.527Z,1.47
2018-08-31T15:23:54.298Z,1.40
2018-08-31T15:26:22.029Z,1.20
2018-08-31T15:28:49.720Z,1.50
2018-08-31T15:31:17.456Z,2.20
2018-08-31T15:33:45.189Z,2.37
2018-08-31T15:36:12.933Z,1.93
2018-08-31T15:38:40.704Z,2.53
2018-08-31T15:41:08.757Z,1.57
2018-08-31T15:43:36.479Z,1.50
2018-08-31T15:46:04.288Z,1.50
2018-08-31T15:48:32.021Z,1.70
2018-08-31T15:50:59.713Z,1.80
2018-08-31T15:53:28.444Z,1.63
2018-08-31T15:55:56.176Z,1.47
2018-08-31T15:58:23.899Z,1.80
2018-08-31T16:00:52.020Z,1.80
2018-08-31T16:03:19.771Z,1.93
2018-08-31T16:05:47.647Z,1.73
2018-08-31T16:08:15.480Z,1.80
2018-08-31T16:10:43.194Z,1.60
2018-08-31T16:13:10.887Z,1.67
2018-08-31T16:15:38.620Z,2.20
2018-08-31T16:18:06.354Z,2.17
2018-08-31T16:20:34.218Z,1.70
2018-08-31T16:23:01.987Z,14.50
2018-08-31T16:25:29.766Z,2.37
2018-08-31T16:27:57.515Z,5.80
2018-08-31T16:30:25.256Z,2.00
2018-08-31T16:32:53.172Z,1.80
2018-08-31T16:35:20.892Z,1.53
2018-08-31T16:37:48.612Z,1.50
2018-08-31T16:40:16.343Z,1.40
2018-08-31T16:42:44.079Z,1.40
2018-08-31T16:45:11.989Z,1.40
2018-08-31T16:47:39.745Z,1.33
2018-08-31T16:50:07.473Z,1.77
2018-08-31T16:52:35.213Z,2.03
2018-08-31T16:55:02.972Z,1.70
2018-08-31T16:57:30.697Z,2.07
2018-08-31T16:59:58.442Z,1.50
2018-08-31T17:02:26.156Z,1.53
2018-08-31T17:04:53.861Z,2.23
2018-08-31T17:07:21.569Z,1.90
2018-08-31T17:09:49.271Z,1.80
2018-08-31T17:12:16.996Z,2.10
2018-08-31T17:14:44.704Z,2.10
2018-08-31T17:17:12.397Z,1.70
2018-08-31T17:19:40.141Z,1.70
2018-08-31T17:22:07.884Z,1.87
2018-08-31T17:24:35.639Z,1.30
2018-08-31T17:27:09.153Z,1.67
2018-08-31T17:29:42.433Z,1.40
2018-08-31T17:32:15.844Z,2.43
2018-08-31T17:34:49.308Z,1.67
2018-08-31T17:37:22.816Z,2.10
2018-08-31T17:39:50.524Z,1.53
2018-08-31T17:42:18.275Z,1.70
2018-08-31T17:44:45.977Z,1.77
2018-08-31T17:47:13.743Z,2.43
2018-08-31T17:49:41.453Z,1.83
2018-08-31T17:52:09.294Z,2.00
2018-08-31T17:54:37.094Z,1.90
2018-08-31T17:57:05.336Z,1.73
2018-08-31T17:59:33.122Z,2.50
2018-08-31T18:02:01.164Z,2.23
2018-08-31T18:04:28.917Z,2.17
2018-08-31T18:06:56.667Z,1.90
2018-08-31T18:09:24.493Z,2.73
2018-08-31T18:11:52.146Z,1.83
2018-08-31T18:14:19.875Z,1.67
2018-08-31T18:16:47.619Z,1.70
2018-08-31T18:19:15.407Z,2.07
2018-08-31T18:21:43.129Z,2.03
2018-08-31T18:24:10.877Z,1.77
2018-08-31T18:26:38.604Z,2.30
2018-08-31T18:29:06.367Z,2.40
2018-08-31T18:31:34.084Z,2.00
2018-08-31T18:34:01.908Z,1.90
2018-08-31T18:36:29.672Z,2.00
2018-08-31T18:38:57.425Z,3.00
2018-08-31T18:41:25.202Z,1.80
2018-08-31T18:43:52.971Z,1.83
2018-08-31T18:46:20.773Z,1.63
2018-08-31T18:48:48.578Z,1.80
2018-08-31T18:51:16.354Z,1.30
2018-08-31T18:53:44.093Z,2.13
2018-08-31T18:56:11.865Z,2.07
2018-08-31T18:58:39.638Z,1.90
2018-08-31T19:01:07.461Z,2.00
2018-08-31T19:03:35.238Z,2.67
2018-08-31T19:06:03.034Z,2.07
2018-08-31T19:08:30.876Z,1.90
2018-08-31T19:10:58.639Z,1.93
2018-08-31T19:13:26.462Z,2.00
2018-08-31T19:15:54.225Z,1.60
2018-08-31T19:18:22.065Z,2.03
2018-08-31T19:20:49.825Z,2.00
2018-08-31T19:23:18.089Z,2.47
2018-08-31T19:25:45.865Z,1.90
2018-08-31T19:28:13.654Z,1.87
2018-08-31T19:30:41.405Z,1.70
2018-08-31T19:33:09.174Z,1.57
2018-08-31T19:35:36.963Z,1.60
2018-08-31T19:38:04.792Z,2.00
2018-08-31T19:40:32.566Z,3.20
2018-08-31T19:43:00.339Z,2.40
2018-08-31T19:45:28.165Z,2.37
2018-08-31T19:47:55.910Z,2.90
2018-08-31T19:50:23.668Z,2.47
2018-08-31T19:52:51.425Z,3.00
2018-08-31T19:55:19.178Z,2.23
2018-08-31T19:57:46.937Z,2.60
2018-08-31T20:00:14.739Z,2.80
2018-08-31T20:02:42.507Z,2.50
2018-08-31T20:05:10.335Z,2.40
2018-08-31T20:07:38.102Z,3.33
2018-08-31T20:10:05.928Z,3.57
2018-08-31T20:12:33.660Z,3.43
2018-08-31T20:15:01.451Z,3.80
2018-08-31T20:17:29.228Z,4.23
2018-08-31T20:19:56.996Z,4.10
2018-08-31T20:22:24.787Z,3.90
2018-08-31T20:24:52.557Z,3.00
2018-08-31T20:27:20.354Z,3.30
2018-08-31T20:29:48.176Z,2.57
2018-08-31T20:32:15.935Z,2.50
2018-08-31T20:34:43.709Z,2.80
2018-08-31T20:37:11.465Z,2.20
2018-08-31T20:39:39.258Z,2.53
2018-08-31T20:42:07.015Z,2.90
2018-08-31T20:44:34.766Z,2.47
2018-08-31T20:47:02.881Z,2.90
2018-08-31T20:49:30.732Z,3.40
2018-08-31T20:51:58.550Z,3.23
2018-08-31T20:54:26.338Z,3.73
2018-08-31T20:56:54.089Z,3.33
2018-08-31T20:59:21.840Z,3.03
2018-08-31T21:01:49.620Z,2.50
2018-08-31T21:04:17.409Z,3.00
2018-08-31T21:06:45.262Z,2.90
2018-08-31T21:09:13.016Z,2.70
2018-08-31T21:11:40.760Z,2.73
2018-08-31T21:14:08.537Z,3.67
2018-08-31T21:16:36.310Z,2.90
2018-08-31T21:19:04.128Z,3.83
2018-08-31T21:21:31.984Z,3.53
2018-08-31T21:23:59.734Z,2.90
2018-08-31T21:26:27.489Z,3.07
2018-08-31T21:28:55.240Z,8.83
2018-08-31T21:31:23.010Z,4.43
2018-08-31T21:33:50.790Z,2.90
2018-08-31T21:36:18.572Z,2.63
2018-08-31T21:38:46.404Z,2.70
2018-08-31T21:41:14.165Z,2.83
2018-08-31T21:43:41.903Z,2.63
2018-08-31T21:46:09.649Z,3.37
2018-08-31T21:48:37.427Z,3.13
2018-08-31T21:51:05.273Z,2.30
2018-08-31T21:53:33.106Z,2.53
2018-08-31T21:56:00.896Z,2.70
2018-08-31T21:58:28.696Z,2.20
2018-08-31T22:01:02.113Z,2.50
2018-08-31T22:03:29.882Z,2.80
2018-08-31T22:05:57.650Z,3.40
2018-08-31T22:08:25.499Z,3.03
2018-08-31T22:10:53.215Z,2.30
2018-08-31T22:13:21.028Z,2.67
2018-08-31T22:15:48.873Z,2.53
2018-08-31T22:18:16.618Z,2.60
2018-08-31T22:20:44.418Z,2.63
2018-08-31T22:23:12.173Z,2.97
2018-08-31T22:25:40.009Z,2.47
2018-08-31T22:28:07.814Z,3.17
2018-08-31T22:30:35.600Z,1.80
2018-08-31T22:33:03.413Z,1.80
2018-08-31T22:35:31.233Z,3.20
2018-08-31T22:37:58.998Z,2.63
2018-08-31T22:40:26.766Z,7.77
2018-08-31T22:42:54.545Z,5.70
2018-08-31T22:45:22.334Z,2.50
2018-08-31T22:47:50.610Z,3.27
2018-08-31T22:50:18.416Z,2.43
2018-08-31T22:52:46.248Z,3.50
2018-08-31T22:55:14.005Z,3.30
2018-08-31T22:57:41.763Z,2.60
2018-08-31T23:00:09.547Z,2.83
2018-08-31T23:02:37.337Z,3.23
2018-08-31T23:05:05.144Z,3.70
2018-08-31T23:07:38.872Z,3.17
2018-08-31T23:10:07.030Z,2.47
2018-08-31T23:12:34.824Z,3.00
2018-08-31T23:15:02.622Z,3.63
2018-08-31T23:17:30.450Z,3.33
2018-08-31T23:19:59.058Z,4.00
2018-08-31T23:22:28.184Z,3.23
2018-08-31T23:24:59.416Z,3.00
2018-08-31T23:27:27.844Z,4.40
2018-08-31T23:29:55.756Z,3.80
2018-08-31T23:32:23.988Z,3.37
2018-08-31T23:34:52.063Z,3.77
2018-08-31T23:37:19.831Z,4.63
2018-08-31T23:39:47.632Z,4.43
2018-08-31T23:42:15.429Z,4.00
2018-08-31T23:44:43.197Z,4.20
2018-08-31T23:47:11.009Z,4.43
2018-08-31T23:49:38.748Z,4.57
2018-08-31T23:52:06.584Z,4.23
2018-08-31T23:54:34.373Z,4.40
2018-08-31T23:57:02.175Z,4.87
2018-08-31T23:59:29.962Z,3.57
